Terminal Aerodrome Forecast
Issued by NWS Wakefield, VA

Home | Current Version | Previous Version | Text Only | Print | Product List | Glossary On
Versions: 1 2 3 4 5 6 7 8 9 10 11 12 13 14 15 16 17 18
741
FTUS41 KAKQ 170527
TAFECG
TAF
KECG 170527Z 1706/1806 00000KT P6SM BKN080
     FM170900 00000KT P6SM OVC030
     FM171300 00000KT 4SM BR OVC025
     FM171600 18005KT P6SM OVC020=

USA.gov is the U.S. government's official web portal to all federal, state and local government web resources and services.